createdAt,value
2018-12-04T00:01:49.623Z,100169.35
2018-12-04T00:04:32.915Z,100206.61
2018-12-04T00:07:15.359Z,100186.83
2018-12-04T00:10:07.872Z,100223.87
2018-12-04T00:12:51.168Z,100202.05
2018-12-04T00:15:41.268Z,100198.82
2018-12-04T00:18:24.332Z,100205.05
2018-12-04T00:21:38.334Z,100239.91
2018-12-04T00:24:07.988Z,100248.46
2018-12-04T00:26:37.322Z,100253.77
2018-12-04T00:29:06.649Z,100255.88
2018-12-04T00:31:42.594Z,100265.14
2018-12-04T00:34:11.894Z,100267.46
2018-12-04T00:36:41.252Z,100276.85
2018-12-04T00:39:10.544Z,100286.66
2018-12-04T00:41:39.845Z,100289.28
2018-12-04T00:44:09.176Z,100299.00
2018-12-04T00:46:38.525Z,100295.16
2018-12-04T00:49:07.803Z,100305.64
2018-12-04T00:51:37.150Z,100308.81
2018-12-04T00:54:06.485Z,100316.16
2018-12-04T00:56:35.806Z,100323.56
2018-12-04T00:59:05.296Z,100329.34
2018-12-04T01:01:34.605Z,100335.77
2018-12-04T01:04:03.982Z,100343.08
2018-12-04T01:06:33.262Z,100352.41
2018-12-04T01:09:02.615Z,100356.45
2018-12-04T01:11:31.915Z,100361.72
2018-12-04T01:14:01.257Z,100367.84
2018-12-04T01:16:30.548Z,100373.33
2018-12-04T01:18:59.864Z,100377.16
2018-12-04T01:21:29.198Z,100387.27
2018-12-04T01:23:58.555Z,100391.31
2018-12-04T01:26:27.799Z,100398.37
2018-12-04T01:28:57.240Z,100404.66
2018-12-04T01:31:26.501Z,100408.84
2018-12-04T01:33:55.884Z,100406.31
2018-12-04T01:36:25.208Z,100415.79
2018-12-04T01:38:54.563Z,100422.95
2018-12-04T01:41:23.863Z,100437.27
2018-12-04T01:43:53.172Z,100436.58
2018-12-04T01:46:22.510Z,100445.83
2018-12-04T01:48:51.890Z,100452.56
2018-12-04T01:51:21.196Z,100447.20
2018-12-04T01:53:50.600Z,100456.14
2018-12-04T01:56:19.927Z,100463.48
2018-12-04T01:58:49.242Z,100468.09
2018-12-04T02:01:18.543Z,100471.05
2018-12-04T02:03:48.306Z,100476.94
2018-12-04T02:06:18.372Z,100484.63
2018-12-04T02:08:48.296Z,100485.61
2018-12-04T02:11:18.360Z,100491.81
2018-12-04T02:13:48.368Z,100504.79
2018-12-04T02:16:18.748Z,100510.66
2018-12-04T02:18:48.685Z,100514.25
2018-12-04T02:21:18.668Z,100524.58
2018-12-04T02:23:48.760Z,100530.97
2018-12-04T02:26:18.747Z,100537.20
2018-12-04T02:28:48.785Z,100538.32
2018-12-04T02:31:18.929Z,100540.92
2018-12-04T02:33:48.839Z,100562.42
2018-12-04T02:36:18.842Z,100570.52
2018-12-04T02:38:49.169Z,100577.13
2018-12-04T02:41:19.230Z,100581.72
2018-12-04T02:43:49.220Z,100589.77
2018-12-04T02:46:19.253Z,100592.43
2018-12-04T02:48:49.275Z,100609.47
2018-12-04T02:51:18.630Z,100609.41
2018-12-04T02:53:47.971Z,100617.02
2018-12-04T02:56:17.337Z,100625.74
2018-12-04T02:58:46.661Z,100635.60
2018-12-04T03:01:16.004Z,100637.39
2018-12-04T03:03:45.677Z,100641.34
2018-12-04T03:06:15.004Z,100648.14
2018-12-04T03:08:44.415Z,100651.92
2018-12-04T03:11:13.730Z,100659.20
2018-12-04T03:13:43.049Z,100674.63
2018-12-04T03:16:12.389Z,100679.73
2018-12-04T03:18:41.685Z,100687.47
2018-12-04T03:21:11.039Z,100695.63
2018-12-04T03:23:40.381Z,100700.63
2018-12-04T03:26:09.753Z,100703.76
2018-12-04T03:28:39.026Z,100708.64
2018-12-04T03:31:08.397Z,100717.54
2018-12-04T03:33:40.832Z,100716.44
2018-12-04T03:36:10.174Z,100719.05
2018-12-04T03:38:39.512Z,100723.39
2018-12-04T03:41:08.915Z,100729.42
2018-12-04T03:43:38.213Z,100738.16
2018-12-04T03:46:07.542Z,100744.81
2018-12-04T03:48:36.918Z,100748.70
2018-12-04T03:51:06.431Z,100750.32
2018-12-04T03:53:35.818Z,100758.58
2018-12-04T03:56:05.252Z,100765.56
2018-12-04T03:58:34.552Z,100773.18
2018-12-04T04:01:03.946Z,100769.77
2018-12-04T04:03:33.251Z,100773.18
2018-12-04T04:06:02.542Z,100778.38
2018-12-04T04:08:31.852Z,100791.38
2018-12-04T04:11:01.147Z,100791.41
2018-12-04T04:13:30.455Z,100801.78
2018-12-04T04:15:59.764Z,100806.64
2018-12-04T04:18:32.934Z,100815.05
2018-12-04T04:21:02.221Z,100809.23
2018-12-04T04:23:31.562Z,100812.44
2018-12-04T04:26:00.847Z,100813.58
2018-12-04T04:28:30.128Z,100820.09
2018-12-04T04:30:59.437Z,100821.87
2018-12-04T04:33:28.725Z,100831.94
2018-12-04T04:35:59.450Z,100833.39
2018-12-04T04:38:28.749Z,100832.59
2018-12-04T04:40:58.440Z,100844.44
2018-12-04T04:43:27.792Z,100845.57
2018-12-04T04:45:57.256Z,100836.66
2018-12-04T04:48:26.585Z,100844.75
2018-12-04T04:50:56.116Z,100853.35
2018-12-04T04:53:25.527Z,100863.39
2018-12-04T04:55:54.939Z,100866.14
2018-12-04T04:58:24.253Z,100873.92
2018-12-04T05:00:53.654Z,100884.64
2018-12-04T05:03:23.069Z,100888.04
2018-12-04T05:05:52.365Z,100887.72
2018-12-04T05:08:21.672Z,100893.41
2018-12-04T05:10:51.180Z,100903.30
2018-12-04T05:13:20.487Z,100903.12
2018-12-04T05:15:49.817Z,100916.44
2018-12-04T05:18:19.134Z,100919.81
2018-12-04T05:20:48.499Z,100924.22
2018-12-04T05:23:17.784Z,100929.22
2018-12-04T05:25:47.181Z,100934.41
2018-12-04T05:28:16.593Z,100936.16
2018-12-04T05:30:45.895Z,100938.78
2018-12-04T05:33:15.196Z,100945.09
2018-12-04T05:35:44.600Z,100953.01
2018-12-04T05:38:13.941Z,100953.81
2018-12-04T05:40:43.275Z,100956.44
2018-12-04T05:43:12.578Z,100964.06
2018-12-04T05:45:41.919Z,100966.33
2018-12-04T05:48:11.249Z,100973.16
2018-12-04T05:50:40.612Z,100980.75
2018-12-04T05:53:27.024Z,100991.91
2018-12-04T05:55:56.353Z,101001.45
2018-12-04T05:58:25.855Z,101012.61
2018-12-04T06:00:55.238Z,101014.08
2018-12-04T06:03:24.938Z,101011.83
2018-12-04T06:05:54.226Z,101018.31
2018-12-04T06:08:23.494Z,101026.72
2018-12-04T06:10:52.838Z,101031.08
2018-12-04T06:13:22.141Z,101042.71
2018-12-04T06:15:51.424Z,101042.38
2018-12-04T06:18:20.754Z,101049.98
2018-12-04T06:20:50.018Z,101058.73
2018-12-04T06:23:19.341Z,101066.97
2018-12-04T06:25:48.637Z,101068.08
2018-12-04T06:28:17.964Z,101082.30
2018-12-04T06:30:47.260Z,101086.24
2018-12-04T06:33:16.578Z,101092.23
2018-12-04T06:35:45.889Z,101099.91
2018-12-04T06:38:15.256Z,101101.77
2018-12-04T06:40:44.572Z,101119.73
2018-12-04T06:43:14.026Z,101128.00
2018-12-04T06:45:43.395Z,101144.23
2018-12-04T06:48:12.880Z,101131.97
2018-12-04T06:50:42.205Z,101146.86
2018-12-04T06:53:11.540Z,101151.23
2018-12-04T06:55:40.911Z,101159.57
2018-12-04T06:58:10.205Z,101168.31
2018-12-04T07:00:39.561Z,101177.34
2018-12-04T07:03:08.890Z,101183.48
2018-12-04T07:05:38.254Z,101190.61
2018-12-04T07:08:07.577Z,101205.02
2018-12-04T07:10:36.967Z,101208.54
2018-12-04T07:13:06.285Z,101213.08
2018-12-04T07:15:35.775Z,101214.64
2018-12-04T07:18:08.474Z,101211.21
2018-12-04T07:20:41.342Z,101249.75
2018-12-04T07:23:10.694Z,101242.61
2018-12-04T07:25:39.987Z,101233.72
2018-12-04T07:28:09.339Z,101251.86
2018-12-04T07:30:38.782Z,101254.81
2018-12-04T07:33:08.096Z,101254.39
2018-12-04T07:35:37.483Z,101256.69
2018-12-04T07:38:06.770Z,101260.77
2018-12-04T07:40:36.126Z,101266.70
2018-12-04T07:43:05.532Z,101270.07
2018-12-04T07:45:34.863Z,101275.50
2018-12-04T07:48:04.828Z,101278.39
2018-12-04T07:50:34.770Z,101275.14
2018-12-04T07:53:04.710Z,101279.79
2018-12-04T07:55:34.169Z,101281.56
2018-12-04T07:58:03.507Z,101301.56
2018-12-04T08:00:32.972Z,101318.88
2018-12-04T08:03:02.243Z,101318.71
2018-12-04T08:05:31.606Z,101323.62
2018-12-04T08:08:00.879Z,101334.98
2018-12-04T08:10:30.295Z,101338.31
2018-12-04T08:12:59.621Z,101340.15
2018-12-04T08:15:28.943Z,101348.48
2018-12-04T08:17:58.313Z,101358.09
2018-12-04T08:20:27.688Z,101359.98
2018-12-04T08:22:57.009Z,101361.47
2018-12-04T08:25:26.378Z,101372.45
2018-12-04T08:27:55.683Z,101376.23
2018-12-04T08:30:25.011Z,101379.78
2018-12-04T08:32:54.346Z,101390.28
2018-12-04T08:35:23.676Z,101392.69
2018-12-04T08:37:52.998Z,101391.81
2018-12-04T08:40:22.399Z,101395.91
2018-12-04T08:42:51.704Z,101394.16
2018-12-04T08:45:21.023Z,101400.67
2018-12-04T08:47:50.331Z,101404.64
2018-12-04T08:50:19.692Z,101400.31
2018-12-04T08:52:49.036Z,101399.71
2018-12-04T08:55:18.394Z,101409.81
2018-12-04T08:57:47.726Z,101410.97
2018-12-04T09:00:17.018Z,101421.45
2018-12-04T09:02:46.364Z,101425.38
2018-12-04T09:05:15.856Z,101430.56
2018-12-04T09:07:45.277Z,101441.98
2018-12-04T09:10:14.805Z,101457.02
2018-12-04T09:12:44.110Z,101455.95
2018-12-04T09:15:13.387Z,101465.83
2018-12-04T09:17:42.678Z,101473.94
2018-12-04T09:20:12.020Z,101482.13
2018-12-04T09:22:41.642Z,101491.80
2018-12-04T09:25:11.042Z,101499.75
2018-12-04T09:27:40.467Z,101514.40
2018-12-04T09:30:12.275Z,101513.89
2018-12-04T09:32:42.857Z,101525.05
2018-12-04T09:35:12.794Z,101533.77
2018-12-04T09:37:42.089Z,101536.09
2018-12-04T09:40:11.479Z,101542.77
2018-12-04T09:42:40.859Z,101549.67
2018-12-04T09:45:10.146Z,101561.11
2018-12-04T09:47:39.414Z,101560.83
2018-12-04T09:50:09.462Z,101554.57
2018-12-04T09:52:38.827Z,101561.75
2018-12-04T09:55:08.237Z,101574.00
2018-12-04T09:57:37.564Z,101579.91
2018-12-04T10:00:09.142Z,101583.30
2018-12-04T10:02:38.587Z,101588.45
2018-12-04T10:05:07.988Z,101589.83
2018-12-04T10:07:37.353Z,101595.16
2018-12-04T10:10:09.218Z,101597.77
2018-12-04T10:12:45.362Z,101603.19
2018-12-04T10:15:15.303Z,101608.68
2018-12-04T10:17:45.185Z,101604.53
2018-12-04T10:20:15.251Z,101615.82
2018-12-04T10:22:45.163Z,101619.63
2018-12-04T10:25:15.452Z,101626.68
2018-12-04T10:27:45.438Z,101637.69
2018-12-04T10:30:15.412Z,101649.89
2018-12-04T10:32:49.581Z,101662.78
2018-12-04T10:35:19.189Z,101709.05
2018-12-04T10:37:48.593Z,101677.16
2018-12-04T10:40:17.956Z,101665.63
2018-12-04T10:42:47.317Z,101670.69
2018-12-04T10:45:16.601Z,101671.16
2018-12-04T10:47:46.332Z,101666.56
2018-12-04T10:50:15.628Z,101667.53
2018-12-04T10:52:44.872Z,101665.19
2018-12-04T10:55:14.214Z,101664.95
2018-12-04T10:57:43.504Z,101674.13
2018-12-04T11:00:18.122Z,101679.52
2018-12-04T11:02:49.824Z,101687.42
2018-12-04T11:05:19.121Z,101702.00
2018-12-04T11:07:48.388Z,101714.26
2018-12-04T11:10:18.606Z,101707.88
2018-12-04T11:12:48.293Z,101708.14
2018-12-04T11:15:17.588Z,101704.16
2018-12-04T11:17:46.864Z,101709.03
2018-12-04T11:20:16.187Z,101706.61
2018-12-04T11:22:45.483Z,101713.41
2018-12-04T11:25:14.829Z,101715.13
2018-12-04T11:27:44.100Z,101711.77
2018-12-04T11:30:13.442Z,101723.86
2018-12-04T11:32:42.831Z,101731.02
2018-12-04T11:35:12.143Z,101732.05
2018-12-04T11:37:41.514Z,101728.70
2018-12-04T11:40:10.968Z,101732.04
2018-12-04T11:42:40.356Z,101733.28
2018-12-04T11:45:09.726Z,101740.69
2018-12-04T11:47:39.172Z,101741.71
2018-12-04T11:50:08.788Z,101752.92
2018-12-04T11:52:38.729Z,101760.38
2018-12-04T11:55:08.566Z,101765.02
2018-12-04T11:57:41.925Z,101770.02
2018-12-04T12:00:21.604Z,101770.16
2018-12-04T12:02:51.533Z,101778.63
2018-12-04T12:10:25.064Z,101780.06
2018-12-04T12:12:54.517Z,101784.83
2018-12-04T12:15:24.063Z,101784.11
2018-12-04T12:17:53.588Z,101793.53
2018-12-04T12:20:23.671Z,101797.63
2018-12-04T12:22:53.591Z,101807.55
2018-12-04T12:25:23.557Z,101813.61
2018-12-04T12:27:53.610Z,101816.61
2018-12-04T12:30:25.076Z,101818.27
2018-12-04T12:32:54.500Z,101821.86
2018-12-04T12:35:23.936Z,101822.86
2018-12-04T12:37:54.022Z,101833.89
2018-12-04T12:40:30.538Z,101839.69
2018-12-04T12:42:59.869Z,101837.44
2018-12-04T12:45:29.162Z,101848.45
2018-12-04T12:47:58.503Z,101845.64
2018-12-04T12:50:27.806Z,101847.86
2018-12-04T12:52:57.394Z,101862.23
2018-12-04T12:55:26.699Z,101864.69
2018-12-04T12:57:56.011Z,101868.61
2018-12-04T13:00:25.982Z,101869.55
2018-12-04T13:02:56.043Z,101880.84
2018-12-04T13:05:26.087Z,101875.87
2018-12-04T13:07:56.336Z,101879.26
2018-12-04T13:10:26.351Z,101885.77
2018-12-04T13:12:56.358Z,101889.70
2018-12-04T13:15:26.205Z,101893.16
2018-12-04T13:17:56.439Z,101897.23
2018-12-04T13:20:25.746Z,101897.45
2018-12-04T13:22:55.098Z,101897.93
2018-12-04T13:25:24.435Z,101902.28
2018-12-04T13:27:53.747Z,101908.13
2018-12-04T13:30:23.104Z,101917.72
2018-12-04T13:32:52.492Z,101921.62
2018-12-04T13:35:21.816Z,101918.52
2018-12-04T13:37:53.157Z,101925.63
2018-12-04T13:40:22.596Z,101923.28
2018-12-04T13:42:51.923Z,101935.46
2018-12-04T13:45:21.290Z,101942.94
2018-12-04T13:47:50.600Z,101951.61
2018-12-04T13:50:19.917Z,101950.12
2018-12-04T13:52:49.234Z,101957.14
2018-12-04T13:55:18.643Z,101951.94
2018-12-04T13:57:50.761Z,101953.80
2018-12-04T14:00:19.907Z,101954.84
2018-12-04T14:02:49.338Z,101959.53
2018-12-04T14:05:18.770Z,101968.48
2018-12-04T14:07:48.198Z,101976.28
2018-12-04T14:10:17.539Z,101976.66
2018-12-04T14:12:47.019Z,101977.39
2018-12-04T14:15:16.445Z,101983.89
2018-12-04T14:17:45.839Z,101991.59
2018-12-04T14:20:15.203Z,101991.70
2018-12-04T14:22:44.653Z,101999.27
2018-12-04T14:25:14.201Z,101997.09
2018-12-04T14:27:43.541Z,101997.84
2018-12-04T14:30:13.580Z,101997.03
2018-12-04T14:32:43.023Z,102005.28
2018-12-04T14:35:12.431Z,102014.66
2018-12-04T14:37:41.734Z,102020.95
2018-12-04T14:40:11.141Z,102027.94
2018-12-04T14:42:40.470Z,102029.38
2018-12-04T14:45:09.822Z,102038.34
2018-12-04T14:47:39.294Z,102044.29
2018-12-04T14:50:10.037Z,102051.63
2018-12-04T14:52:39.453Z,102064.67
2018-12-04T14:55:09.346Z,102064.64
2018-12-04T14:57:38.793Z,102073.06
2018-12-04T15:00:10.796Z,102069.48
2018-12-04T15:02:40.452Z,102077.11
2018-12-04T15:05:10.298Z,102082.09
2018-12-04T15:07:39.649Z,102099.45
2018-12-04T15:10:11.197Z,102101.53
2018-12-04T15:12:40.672Z,102104.75
2018-12-04T15:15:10.314Z,102102.77
2018-12-04T15:17:40.200Z,102103.28
2018-12-04T15:20:10.006Z,102111.05
2018-12-04T15:22:39.565Z,102109.48
2018-12-04T15:25:09.232Z,102112.99
2018-12-04T15:27:38.659Z,102112.25
2018-12-04T15:30:08.382Z,102113.29
2018-12-04T15:32:37.850Z,102121.70
2018-12-04T15:35:07.406Z,102122.31
2018-12-04T15:37:36.857Z,102129.95
2018-12-04T15:40:07.622Z,102134.98
2018-12-04T15:42:37.098Z,102137.77
2018-12-04T15:45:07.201Z,102146.80
2018-12-04T15:47:36.665Z,102151.20
2018-12-04T15:50:07.437Z,102158.09
2018-12-04T15:52:36.797Z,102164.03
2018-12-04T15:55:06.611Z,102171.20
2018-12-04T15:57:36.050Z,102173.44
2018-12-04T16:00:08.331Z,102173.86
2018-12-04T16:02:37.681Z,102179.70
2018-12-04T16:05:09.383Z,102180.77
2018-12-04T16:07:38.781Z,102183.19
2018-12-04T16:10:12.300Z,102194.03
2018-12-04T16:12:41.847Z,102188.44
2018-12-04T16:15:11.194Z,102200.65
2018-12-04T16:17:40.467Z,102199.24
2018-12-04T16:20:10.110Z,102204.31
2018-12-04T16:22:39.455Z,102212.13
2018-12-04T16:25:09.957Z,102206.52
2018-12-04T16:27:39.289Z,102210.20
2018-12-04T16:30:10.475Z,102215.16
2018-12-04T16:32:39.801Z,102214.45
2018-12-04T16:35:09.651Z,102214.78
2018-12-04T16:37:39.085Z,102213.21
2018-12-04T16:40:09.088Z,102218.41
2018-12-04T16:42:38.574Z,102216.03
2018-12-04T16:45:08.249Z,102211.73
2018-12-04T16:47:37.623Z,102219.00
2018-12-04T16:50:07.400Z,102226.86
2018-12-04T16:52:36.828Z,102222.81
2018-12-04T16:55:07.391Z,102227.92
2018-12-04T16:57:36.757Z,102233.56
2018-12-04T17:00:09.066Z,102237.58
2018-12-04T17:02:38.421Z,102241.84
2018-12-04T17:05:07.992Z,102251.69
2018-12-04T17:07:37.363Z,102253.59
2018-12-04T17:10:08.118Z,102247.47
2018-12-04T17:12:37.473Z,102257.08
2018-12-04T17:15:07.524Z,102258.33
2018-12-04T17:17:36.847Z,102264.08
2018-12-04T17:20:07.586Z,102262.22
2018-12-04T17:22:36.944Z,102268.02
2018-12-04T17:25:06.435Z,102273.00
2018-12-04T17:27:39.378Z,102278.55
2018-12-04T17:30:11.237Z,102287.35
2018-12-04T17:32:40.839Z,102285.80
2018-12-04T17:35:10.721Z,102287.51
2018-12-04T17:37:40.238Z,102282.36
2018-12-04T17:40:09.956Z,102286.91
2018-12-04T17:42:46.108Z,102290.70
2018-12-04T17:45:15.459Z,102290.42
2018-12-04T17:47:48.512Z,102293.95
2018-12-04T17:50:17.858Z,102295.89
2018-12-04T17:52:47.158Z,102297.36
2018-12-04T17:55:16.509Z,102298.69
2018-12-04T17:57:45.906Z,102298.16
2018-12-04T18:00:15.788Z,102305.02
2018-12-04T18:02:45.228Z,102300.30
2018-12-04T18:05:14.611Z,102304.44
2018-12-04T18:07:43.997Z,102301.77
2018-12-04T18:10:13.314Z,102308.05
2018-12-04T18:12:42.649Z,102313.52
2018-12-04T18:15:12.151Z,102314.67
2018-12-04T18:17:41.557Z,102318.15
2018-12-04T18:20:10.835Z,102320.67
2018-12-04T18:22:40.294Z,102324.74
2018-12-04T18:25:09.631Z,102330.41
2018-12-04T18:27:39.061Z,102331.30
2018-12-04T18:30:09.067Z,102331.50
2018-12-04T18:32:38.463Z,102327.20
2018-12-04T18:35:08.218Z,102338.15
2018-12-04T18:37:37.702Z,102341.64
2018-12-04T18:40:07.450Z,102337.25
2018-12-04T18:42:36.900Z,102343.01
2018-12-04T18:45:08.336Z,102346.04
2018-12-04T18:47:37.718Z,102355.23
2018-12-04T18:50:10.160Z,102362.52
2018-12-04T18:52:41.831Z,102360.12
2018-12-04T18:55:15.410Z,102366.22
2018-12-04T18:57:44.921Z,102357.41
2018-12-04T19:00:14.684Z,102368.51
2018-12-04T19:02:44.099Z,102370.19
2018-12-04T19:05:13.423Z,102367.92
2018-12-04T19:07:43.056Z,102373.38
2018-12-04T19:10:12.440Z,102377.08
2018-12-04T19:12:42.476Z,102377.09
2018-12-04T19:15:19.162Z,102370.04
2018-12-04T19:17:48.578Z,102380.78
2018-12-04T19:20:17.891Z,102382.93
2018-12-04T19:22:47.254Z,102384.39
2018-12-04T19:25:16.661Z,102391.65
2018-12-04T19:27:47.942Z,102390.96
2018-12-04T19:30:17.537Z,102387.38
2018-12-04T19:32:46.995Z,102388.05
2018-12-04T19:35:16.369Z,102394.02
2018-12-04T19:37:45.772Z,102386.34
2018-12-04T19:40:15.154Z,102389.80
2018-12-04T19:42:45.502Z,102393.17
2018-12-04T19:45:15.631Z,102405.20
2018-12-04T19:47:45.586Z,102412.17
2018-12-04T19:50:15.593Z,102418.49
2018-12-04T19:52:45.657Z,102432.51
2018-12-04T19:55:15.835Z,102435.97
2018-12-04T19:57:45.911Z,102443.70
2018-12-04T20:00:16.363Z,102445.81
2018-12-04T20:02:46.187Z,102443.95
2018-12-04T20:05:16.307Z,102444.08
2018-12-04T20:07:46.297Z,102456.09
2018-12-04T20:10:16.482Z,102460.75
2018-12-04T20:12:46.213Z,102508.47
2018-12-04T20:15:15.800Z,102501.25
2018-12-04T20:17:45.471Z,102513.19
2018-12-04T20:20:15.056Z,102512.09
2018-12-04T20:22:44.715Z,102519.11
2018-12-04T20:25:14.157Z,102528.55
2018-12-04T20:27:43.507Z,102529.72
2018-12-04T20:30:13.024Z,102524.66
2018-12-04T20:32:42.666Z,102522.53
2018-12-04T20:35:12.092Z,102514.92
2018-12-04T20:37:41.599Z,102513.30
2018-12-04T20:40:11.219Z,102516.17
2018-12-04T20:42:40.681Z,102516.71
2018-12-04T20:45:10.304Z,102496.38
2018-12-04T20:47:39.682Z,102503.73
2018-12-04T20:50:09.343Z,102508.09
2018-12-04T20:52:38.979Z,102506.38
2018-12-04T20:55:08.863Z,102512.09
2018-12-04T20:57:38.702Z,102516.14
2018-12-04T21:00:12.381Z,102527.08
2018-12-04T21:02:41.848Z,102539.79
2018-12-04T21:05:11.250Z,102550.45
2018-12-04T21:07:40.547Z,102567.53
2018-12-04T21:10:14.010Z,102557.91
2018-12-04T21:12:47.595Z,102553.38
2018-12-04T21:15:16.876Z,102545.88
2018-12-04T21:17:46.264Z,102546.94
2018-12-04T21:20:15.597Z,102551.16
2018-12-04T21:22:44.937Z,102556.45
2018-12-04T21:25:14.257Z,102555.92
2018-12-04T21:27:49.036Z,102555.30
2018-12-04T21:30:23.628Z,102550.66
2018-12-04T21:33:58.814Z,102538.31
2018-12-04T21:36:33.514Z,102539.43
2018-12-04T21:39:08.283Z,102549.20
2018-12-04T21:41:43.030Z,102550.42
2018-12-04T21:44:17.705Z,102560.42
2018-12-04T21:46:52.343Z,102571.74
2018-12-04T21:49:22.114Z,102578.20
2018-12-04T21:51:51.454Z,102566.30
2018-12-04T21:54:20.910Z,102566.80
2018-12-04T21:56:50.946Z,102562.30
2018-12-04T21:59:20.843Z,102559.83
2018-12-04T22:01:50.933Z,102569.34
2018-12-04T22:04:21.256Z,102564.55
2018-12-04T22:06:51.313Z,102563.45
2018-12-04T22:09:21.352Z,102570.95
2018-12-04T22:11:51.230Z,102573.07
2018-12-04T22:14:21.453Z,102580.19
2018-12-04T22:16:51.951Z,102582.30
2018-12-04T22:19:22.080Z,102579.24
2018-12-04T22:21:52.752Z,102579.30
2018-12-04T22:24:22.118Z,102588.05
2018-12-04T22:26:51.985Z,102583.41
2018-12-04T22:29:21.442Z,102591.98
2018-12-04T22:31:50.869Z,102592.77
2018-12-04T22:34:20.238Z,102592.33
2018-12-04T22:36:49.650Z,102597.61
2018-12-04T22:39:18.967Z,102596.41
2018-12-04T22:41:48.488Z,102598.84
2018-12-04T22:44:17.859Z,102601.06
2018-12-04T22:46:47.346Z,102599.80
2018-12-04T22:49:17.249Z,102593.84
2018-12-04T22:51:46.609Z,102609.53
2018-12-04T22:54:16.173Z,102636.52
2018-12-04T22:56:45.492Z,102633.87
2018-12-04T22:59:14.864Z,102618.27
2018-12-04T23:01:44.328Z,102622.00
2018-12-04T23:04:13.826Z,102626.55
2018-12-04T23:06:43.389Z,102620.09
2018-12-04T23:09:12.913Z,102616.86
2018-12-04T23:11:42.338Z,102618.34
2018-12-04T23:14:11.716Z,102618.34
2018-12-04T23:16:41.489Z,102612.23
2018-12-04T23:19:10.823Z,102609.23
2018-12-04T23:21:40.185Z,102605.77
2018-12-04T23:24:09.771Z,102605.09
2018-12-04T23:26:39.145Z,102602.17
2018-12-04T23:29:08.526Z,102612.91
2018-12-04T23:31:37.873Z,102603.72
2018-12-04T23:34:07.354Z,102611.64
2018-12-04T23:36:36.650Z,102613.16
2018-12-04T23:39:08.196Z,102601.49
2018-12-04T23:41:37.690Z,102609.75
2018-12-04T23:44:07.030Z,102610.91
2018-12-04T23:46:36.382Z,102608.61
2018-12-04T23:49:05.888Z,102606.88
2018-12-04T23:51:35.269Z,102609.89
2018-12-04T23:54:04.736Z,102610.09
2018-12-04T23:56:34.144Z,102611.38
2018-12-04T23:59:03.489Z,102605.98
